Rooks Creek, Illinois
Current Conditions -  °F | °C
As of 8:35 PM on Friday 24 Oct 2014 (Local Time) from KPNT Reporting Station
Broken Clouds Broken Clouds  
Wind Chill: 58°   Ceiling: 5000
Heat Index: 58°   Visibility: 10mi
Dew Point: 53°   Wind: 7mph
Humidity: 83%   Direction: 180°S
Pressure: 29.98"   Gusts: NA
Location:  40.8602°N, 88.6284°W
Report Text: KPNT 250135Z AUTO 18006KT 10SM BKN050 15/12 A2998 RMK AO2 T01450116
Loading
Personal Weather Stations






























Interactive Weather Map
Tropical Storm Tracking
New forecast layout! Learn more

10-Day Weather Forecast

Advertisements
Track Severe Weather on mobile